Weather History for Rockingham, NC

Change the Weather History Date:

Wednesday, January 30, 2013

  Actual Average (KHFF) Record (KHFF)
Temperature  
Mean Temperature 67 °F -  
Max Temperature 77 °F 52 °F 80 °F (2002)
Min Temperature 57 °F 29 °F 1 °F (2014)
Cooling Degree Days 2    
Growing Degree Days 17 (Base 50)    
Moisture  
Dew Point 62 °F    
Average Humidity 81    
Maximum Humidity 97    
Minimum Humidity 55    
Precipitation  
Precipitation 0.23 in - - ()
Sea Level Pressure  
Sea Level Pressure 29.81 in    
Wind  
Wind Speed 14 mph (South)    
Max Wind Speed 24 mph    
Max Gust Speed 39 mph    
Visibility 10 miles    
Events Rain    
Averages and records for this station are not official NWS values.
T = Trace of Precipitation, MM = Missing Value Source: NWS Daily Summary

Daily Weather History Graph

Daily Weather History Graph

Search for Another Location

Airport:

Trip Planner

Search our weather history database for the weather conditions in past years. The results will help you decide how hot, cold, wet, or windy it might be!

Date:

Astronomy

Jan. 30, 2013 Rise Set
Actual Time 7:18 AM EST 5:46 PM EST
Civil Twilight 6:52 AM EST 6:12 PM EST
Nautical Twilight 6:21 AM EST 6:43 PM EST
Astronomical Twilight 5:52 AM EST 7:13 PM EST
Moon 9:31 PM EST (1/30) 8:56 AM EST (1/30)
Length of Visible Light 11h 20m
Length of Day
10h 27m
Waning Gibbous, 88% of the Moon is Illuminated
Jan 30
Waning Gibbous
Feb 3
Last Quarter
Feb 10
New
Feb 17
First Quarter
Feb 25
Full

Hourly Weather History & Observations

Time (EST) Temp. Dew Point Humidity Pressure Visibility Wind Dir Wind Speed Gust Speed Precip Events Conditions
12:15 AM 63.7 °F 61.7 °F 93% 30.08 in 10.0 mi South 10.4 mph - N/A   Scattered Clouds
12:35 AM 63.7 °F 61.9 °F 94% 30.07 in 10.0 mi South 8.1 mph - N/A   Scattered Clouds
12:55 AM 63.5 °F 62.1 °F 95% 30.08 in 10.0 mi South 9.2 mph - N/A   Mostly Cloudy
1:15 AM 63.5 °F 62.4 °F 96% 30.06 in 10.0 mi South 9.2 mph - N/A   Overcast
1:35 AM 63.5 °F 62.2 °F 96% 30.06 in 7.0 mi South 8.1 mph - N/A   Overcast
1:55 AM 63.5 °F 62.6 °F 97% 30.06 in 7.0 mi South 10.4 mph - N/A   Overcast
2:15 AM 63.7 °F 62.8 °F 97% 30.06 in 7.0 mi South 8.1 mph - N/A   Overcast
2:35 AM 63.9 °F 63.0 °F 97% 30.05 in 7.0 mi South 9.2 mph - N/A   Overcast
2:55 AM 63.9 °F 62.8 °F 96% 30.05 in 7.0 mi South 6.9 mph - N/A   Overcast
3:15 AM 63.9 °F 63.0 °F 97% 30.03 in 7.0 mi South 10.4 mph - N/A   Overcast
3:35 AM 63.9 °F 62.8 °F 96% 30.02 in 10.0 mi South 9.2 mph 16.1 mph N/A   Overcast
3:55 AM 63.9 °F 62.8 °F 96% 30.01 in 10.0 mi South 11.5 mph - N/A   Overcast
4:15 AM 64.0 °F 62.8 °F 96% 30.01 in 10.0 mi South 8.1 mph - N/A   Overcast
4:35 AM 64.0 °F 62.8 °F 96% 30.00 in 10.0 mi South 12.7 mph - N/A   Overcast
4:55 AM 64.4 °F 62.8 °F 94% 30.00 in 10.0 mi South 9.2 mph - N/A   Overcast
5:15 AM 64.4 °F 63.1 °F 96% 30.00 in 10.0 mi South 10.4 mph - N/A   Overcast
5:35 AM 64.6 °F 63.5 °F 96% 29.99 in 7.0 mi South 13.8 mph - N/A   Overcast
5:55 AM 64.6 °F 63.1 °F 95% 29.98 in 10.0 mi South 15.0 mph 19.6 mph N/A   Overcast
6:15 AM 64.9 °F 63.5 °F 95% 29.97 in 10.0 mi South 15.0 mph 24.2 mph N/A   Overcast
6:35 AM 65.3 °F 63.9 °F 95% 29.97 in 10.0 mi South 17.3 mph 23.0 mph N/A   Overcast
7:15 AM 65.8 °F 63.5 °F 92% 29.97 in 10.0 mi South 10.4 mph 21.9 mph N/A   Overcast
7:35 AM 65.8 °F 63.5 °F 92% 29.97 in 10.0 mi South 10.4 mph 17.3 mph N/A   Overcast
8:15 AM 65.8 °F 63.5 °F 92% 29.96 in 10.0 mi South 12.7 mph 18.4 mph N/A   Overcast
8:35 AM 66.2 °F 63.5 °F 91% 29.95 in 10.0 mi South 15.0 mph 19.6 mph N/A   Overcast
8:55 AM 66.2 °F 63.9 °F 92% 29.94 in 10.0 mi South 16.1 mph 21.9 mph N/A   Overcast
9:15 AM 66.7 °F 64.2 °F 92% 29.94 in 10.0 mi South 15.0 mph 23.0 mph N/A   Overcast
9:35 AM 67.3 °F 64.4 °F 90% 29.93 in 10.0 mi South 13.8 mph 24.2 mph N/A   Overcast
9:55 AM 68.0 °F 64.4 °F 88% 29.92 in 10.0 mi South 15.0 mph 25.3 mph N/A   Overcast
10:15 AM 68.0 °F 64.4 °F 88% 29.92 in 10.0 mi South 15.0 mph 25.3 mph N/A   Overcast
10:35 AM 68.2 °F 64.4 °F 88% 29.92 in 10.0 mi South 13.8 mph 24.2 mph N/A   Overcast
10:55 AM 68.5 °F 64.4 °F 87% 29.92 in 10.0 mi South 15.0 mph 25.3 mph N/A   Overcast
11:15 AM 68.9 °F 63.9 °F 84% 29.90 in 10.0 mi South 16.1 mph 25.3 mph N/A   Overcast
11:35 AM 68.0 °F 64.4 °F 88% 29.89 in 10.0 mi South 11.5 mph 24.2 mph 0.01 in Rain Light Rain
11:55 AM 68.9 °F 64.2 °F 85% 29.87 in 10.0 mi South 15.0 mph 21.9 mph 0.01 in   Overcast
12:15 PM 69.8 °F 64.4 °F 83% 29.85 in 10.0 mi South 16.1 mph 25.3 mph N/A   Overcast
12:35 PM 72.0 °F 64.6 °F 77% 29.83 in 10.0 mi South 15.0 mph 24.2 mph N/A   Overcast
12:55 PM 73.6 °F 63.1 °F 70% 29.81 in 10.0 mi South 20.7 mph 29.9 mph N/A   Mostly Cloudy
1:15 PM 73.8 °F 62.6 °F 68% 29.80 in 10.0 mi South 18.4 mph 32.2 mph N/A   Overcast
1:35 PM 74.5 °F 62.6 °F 66% 29.78 in 10.0 mi South 17.3 mph 31.1 mph N/A   Overcast
1:55 PM 75.7 °F 61.7 °F 62% 29.76 in 10.0 mi South 20.7 mph 34.5 mph N/A   Mostly Cloudy
2:15 PM 76.5 °F 61.2 °F 59% 29.74 in 10.0 mi South 18.4 mph 36.8 mph N/A   Mostly Cloudy
2:35 PM 77.0 °F 61.5 °F 59% 29.73 in 10.0 mi South 18.4 mph 32.2 mph N/A   Mostly Cloudy
2:55 PM 76.1 °F 60.6 °F 59% 29.71 in 10.0 mi South 19.6 mph 39.1 mph N/A   Mostly Cloudy
3:15 PM 77.4 °F 60.1 °F 55% 29.70 in 10.0 mi South 24.2 mph 29.9 mph N/A   Scattered Clouds
3:35 PM 76.3 °F 59.4 °F 56% 29.70 in 10.0 mi South 19.6 mph 27.6 mph N/A   Scattered Clouds
3:55 PM 76.6 °F 59.2 °F 55% 29.69 in 10.0 mi South 18.4 mph 29.9 mph N/A   Scattered Clouds
4:15 PM 75.2 °F 58.5 °F 56% 29.67 in 10.0 mi South 18.4 mph 35.7 mph N/A   Scattered Clouds
4:35 PM 74.8 °F 58.1 °F 56% 29.67 in 10.0 mi South 20.7 mph 33.4 mph N/A   Scattered Clouds
4:55 PM 74.1 °F 58.3 °F 58% 29.67 in 10.0 mi South 21.9 mph 29.9 mph N/A   Scattered Clouds
5:15 PM 73.6 °F 58.5 °F 59% 29.67 in 10.0 mi South 17.3 mph 25.3 mph N/A   Scattered Clouds
5:35 PM 73.0 °F 58.3 °F 60% 29.65 in 10.0 mi South 21.9 mph 29.9 mph N/A   Scattered Clouds
5:55 PM 72.9 °F 58.3 °F 60% 29.64 in 10.0 mi South 17.3 mph 35.7 mph N/A   Clear
6:15 PM 72.1 °F 59.2 °F 64% 29.62 in 10.0 mi South 19.6 mph 28.8 mph N/A   Scattered Clouds
6:35 PM 71.8 °F 59.7 °F 66% 29.61 in 10.0 mi SSE 17.3 mph 31.1 mph N/A   Scattered Clouds
7:15 PM 70.7 °F 60.8 °F 71% 29.59 in 10.0 mi South 21.9 mph 28.8 mph N/A   Scattered Clouds
7:35 PM 70.3 °F 61.0 °F 72% 29.59 in 10.0 mi South 19.6 mph 31.1 mph N/A   Scattered Clouds
7:55 PM 70.3 °F 61.7 °F 74% 29.58 in 10.0 mi South 17.3 mph 32.2 mph N/A   Scattered Clouds
8:15 PM 70.3 °F 61.7 °F 74% 29.57 in 10.0 mi South 17.3 mph 31.1 mph N/A   Mostly Cloudy
8:35 PM 70.2 °F 61.7 °F 74% 29.56 in 10.0 mi South 21.9 mph 32.2 mph N/A   Mostly Cloudy
8:55 PM 70.2 °F 61.9 °F 75% 29.55 in 10.0 mi South 21.9 mph 31.1 mph N/A   Mostly Cloudy
9:15 PM 70.2 °F 61.9 °F 75% 29.54 in 10.0 mi South 19.6 mph 29.9 mph N/A   Scattered Clouds
9:35 PM 70.3 °F 61.9 °F 74% 29.52 in 10.0 mi South 18.4 mph 31.1 mph N/A   Mostly Cloudy
9:55 PM 69.1 °F 62.6 °F 80% 29.50 in 7.0 mi South 23.0 mph 36.8 mph N/A Rain Light Rain
10:15 PM 68.7 °F 62.8 °F 81% 29.48 in 10.0 mi South 21.9 mph 32.2 mph N/A   Overcast
10:35 PM 68.2 °F 63.5 °F 85% 29.50 in 7.0 mi SW 17.3 mph 29.9 mph N/A Rain Rain
10:55 PM 63.3 °F 61.5 °F 94% 29.56 in 4.0 mi WSW 20.7 mph 35.7 mph 0.20 in Rain Rain
11:15 PM 59.9 °F 57.9 °F 93% 29.58 in 7.0 mi WSW 24.2 mph 33.4 mph 0.02 in Rain Light Rain
11:35 PM 57.9 °F 54.9 °F 90% 29.59 in 10.0 mi WSW 18.4 mph 31.1 mph 0.02 in Rain Light Rain
11:55 PM 57.7 °F 52.0 °F 81% 29.60 in 10.0 mi WSW 24.2 mph 38.0 mph 0.02 in   Overcast